Time;durP1;ratioP1;P1;durP2;ratioP2;P2;SDS_P1;SDS_P2;PMS_P1;PMS_P2;Temp;Humidity;BMP_temperature;BMP_pressure;BME280_temperature;BME280_humidity;BME280_pressure;Samples;Min_cycle;Max_cycle;Signal;HPM_P1;HPM_P2
2022/09/18 00:02:24;;;;;;;5.05;1.05;;;8.50;99.90;;;;;;5060939;28;20025;-63
2022/09/18 00:04:50;;;;;;;7.15;1.10;;;8.40;99.90;;;;;;5060660;28;20060;-64
2022/09/18 00:07:15;;;;;;;4.93;0.85;;;8.40;99.90;;;;;;5058055;28;20029;-64
2022/09/18 00:09:42;;;;;;;6.32;0.90;;;8.50;99.90;;;;;;5061254;28;20495;-63
2022/09/18 00:12:08;;;;;;;3.47;0.82;;;8.50;99.90;;;;;;5059196;28;20025;-63
2022/09/18 00:14:34;;;;;;;4.30;1.02;;;8.50;99.90;;;;;;5058584;28;20037;-63
2022/09/18 00:17:01;;;;;;;4.72;1.05;;;8.60;99.90;;;;;;5060096;28;20389;-64
2022/09/18 00:19:27;;;;;;;4.88;1.55;;;8.60;99.90;;;;;;5056175;28;20047;-66
2022/09/18 00:21:53;;;;;;;7.55;1.10;;;8.60;99.90;;;;;;5062492;28;20021;-63
2022/09/18 00:24:21;;;;;;;6.35;1.40;;;8.60;99.90;;;;;;5055996;28;20052;-64
2022/09/18 00:26:47;;;;;;;10.18;1.83;;;8.60;99.90;;;;;;5054737;28;20387;-66
2022/09/18 00:29:13;;;;;;;2.60;1.00;;;8.60;99.90;;;;;;5057848;28;20369;-63
2022/09/18 00:31:39;;;;;;;2.90;1.20;;;8.70;99.90;;;;;;5062526;28;20032;-65
2022/09/18 00:34:09;;;;;;;4.85;1.10;;;8.60;99.90;;;;;;5060195;28;20032;-66
2022/09/18 00:36:36;;;;;;;3.00;1.00;;;8.70;99.90;;;;;;5057989;28;20025;-63
2022/09/18 00:39:02;;;;;;;4.40;1.50;;;8.70;99.90;;;;;;5060363;28;20021;-64
2022/09/18 00:41:40;;;;;;;4.10;1.00;;;8.70;99.90;;;;;;5056992;28;20052;-63
2022/09/18 00:44:39;;;;;;;6.60;1.30;;;8.70;99.90;;;;;;5057670;28;20112;-67
2022/09/18 00:47:16;;;;;;;3.22;0.90;;;8.70;99.90;;;;;;5040733;28;20455;-64
2022/09/18 00:49:48;;;;;;;4.30;1.00;;;8.70;99.90;;;;;;5058164;28;20089;-66
2022/09/18 00:52:17;;;;;;;4.35;1.08;;;8.70;99.90;;;;;;5057088;28;20033;-65
2022/09/18 00:54:50;;;;;;;4.38;0.93;;;8.70;99.90;;;;;;5058961;28;20614;-65
2022/09/18 00:57:19;;;;;;;5.07;1.17;;;8.80;99.90;;;;;;5057569;28;20041;-66
2022/09/18 00:59:49;;;;;;;3.72;1.00;;;8.80;99.90;;;;;;5054744;28;20025;-64
2022/09/18 01:02:15;;;;;;;4.68;1.45;;;8.80;99.90;;;;;;5061885;28;20534;-66
2022/09/18 01:04:41;;;;;;;5.03;1.00;;;8.80;99.90;;;;;;5058772;28;20025;-66
2022/09/18 01:07:15;;;;;;;8.10;1.13;;;8.80;99.90;;;;;;5057636;28;20055;-63
2022/09/18 01:10:06;;;;;;;5.45;1.67;;;8.80;99.90;;;;;;5057453;28;20324;-64
2022/09/18 01:13:03;;;;;;;3.83;1.33;;;8.80;99.90;;;;;;5061055;28;20071;-64
2022/09/18 01:15:33;;;;;;;4.25;1.13;;;8.80;99.90;;;;;;5059152;28;20527;-64
2022/09/18 01:18:29;;;;;;;6.75;1.05;;;8.80;99.90;;;;;;5058130;28;20132;-64
2022/09/18 01:21:11;;;;;;;7.30;1.20;;;8.80;99.90;;;;;;5061449;28;20029;-64
2022/09/18 01:24:21;;;;;;;5.47;1.60;;;8.70;99.90;;;;;;5060662;28;20440;-64
2022/09/18 01:27:09;;;;;;;4.88;1.15;;;8.70;99.90;;;;;;5054467;28;20029;-64
2022/09/18 01:29:38;;;;;;;5.03;1.33;;;8.60;99.90;;;;;;5053398;28;20037;-65
2022/09/18 01:32:15;;;;;;;7.40;1.60;;;8.60;99.90;;;;;;5057230;28;20024;-64
2022/09/18 01:34:50;;;;;;;3.67;1.50;;;8.60;99.90;;;;;;5060404;28;20384;-64
2022/09/18 01:37:32;;;;;;;9.77;1.52;;;8.70;99.90;;;;;;5061489;28;20031;-63
2022/09/18 01:40:20;;;;;;;8.52;1.55;;;8.70;99.90;;;;;;5063860;28;20100;-63
2022/09/18 01:42:48;;;;;;;3.63;1.50;;;8.70;99.90;;;;;;5063611;28;20032;-63
2022/09/18 01:45:26;;;;;;;2.88;1.52;;;8.70;99.90;;;;;;5062005;28;20037;-64
2022/09/18 01:47:58;;;;;;;11.43;1.70;;;8.70;99.90;;;;;;5061464;28;20041;-63
2022/09/18 01:50:28;;;;;;;6.05;2.08;;;8.70;99.90;;;;;;5058937;28;20064;-63
2022/09/18 01:53:43;;;;;;;3.42;1.40;;;8.70;99.90;;;;;;5066448;28;20048;-64
2022/09/18 01:56:30;;;;;;;5.30;1.63;;;8.70;99.90;;;;;;5044422;28;20040;-63
2022/09/18 01:59:01;;;;;;;8.65;1.70;;;8.80;99.90;;;;;;5062790;28;20548;-64
2022/09/18 02:01:28;;;;;;;;;;;8.80;99.90;;;;;;5057470;28;20392;-63
2022/09/18 02:03:59;;;;;;;3.72;1.50;;;8.80;99.90;;;;;;5080638;28;20000;-63
2022/09/18 02:06:32;;;;;;;7.13;1.88;;;8.70;99.90;;;;;;5061806;28;20039;-67
2022/09/18 02:09:00;;;;;;;7.63;2.25;;;8.80;99.90;;;;;;5062924;28;20071;-64
2022/09/18 02:11:26;;;;;;;3.42;1.38;;;8.80;99.90;;;;;;5062881;28;20025;-65
2022/09/18 02:13:55;;;;;;;7.82;1.85;;;8.80;99.90;;;;;;5059661;28;20029;-63
2022/09/18 02:16:28;;;;;;;5.72;1.42;;;8.80;99.90;;;;;;5063318;28;20031;-63
2022/09/18 02:18:56;;;;;;;4.05;1.40;;;8.80;99.90;;;;;;5062554;28;20256;-64
2022/09/18 02:21:28;;;;;;;4.93;1.60;;;8.70;99.90;;;;;;5063452;28;20111;-64
2022/09/18 02:23:59;;;;;;;;;;;8.70;99.90;;;;;;5057099;28;20036;-66
2022/09/18 02:26:25;;;;;;;4.57;1.40;;;8.60;99.90;;;;;;5062883;28;20291;-63
2022/09/18 02:28:53;;;;;;;2.53;1.33;;;8.60;99.90;;;;;;5062918;28;20024;-63
2022/09/18 02:31:19;;;;;;;4.97;1.67;;;8.50;99.90;;;;;;5060698;28;20427;-64
2022/09/18 02:33:44;;;;;;;4.50;1.23;;;8.50;99.90;;;;;;5063462;28;20027;-64
2022/09/18 02:36:22;;;;;;;3.08;1.52;;;8.50;99.90;;;;;;5062318;28;20477;-65
2022/09/18 02:39:09;;;;;;;7.18;1.70;;;8.60;99.90;;;;;;5062350;28;20040;-63
2022/09/18 02:41:40;;;;;;;2.78;1.23;;;8.60;99.90;;;;;;5061904;28;20586;-64
2022/09/18 02:44:14;;;;;;;9.65;2.53;;;8.70;99.90;;;;;;5059957;28;20184;-65
2022/09/18 02:46:49;;;;;;;5.00;1.85;;;8.70;99.90;;;;;;5057974;28;20033;-63
2022/09/18 02:49:35;;;;;;;5.15;1.63;;;8.80;99.90;;;;;;5063082;28;20021;-65
2022/09/18 02:52:11;;;;;;;4.18;1.50;;;8.80;99.90;;;;;;5053652;28;20028;-65
2022/09/18 02:54:46;;;;;;;5.20;1.83;;;8.80;99.90;;;;;;5059121;28;20025;-63
2022/09/18 02:57:42;;;;;;;6.07;2.03;;;8.80;99.90;;;;;;5057831;28;20584;-64
2022/09/18 03:00:12;;;;;;;3.22;2.05;;;8.80;99.90;;;;;;5059398;28;20500;-63
2022/09/18 03:02:38;;;;;;;2.72;1.60;;;8.70;99.90;;;;;;5049289;28;20376;-63
2022/09/18 03:05:04;;;;;;;4.93;1.52;;;8.70;99.90;;;;;;5057308;28;20032;-64
2022/09/18 03:07:30;;;;;;;5.50;2.60;;;8.70;99.90;;;;;;5063139;28;20040;-63
2022/09/18 03:09:55;;;;;;;5.13;1.83;;;8.70;99.90;;;;;;5049885;28;20047;-64
2022/09/18 03:12:21;;;;;;;2.60;2.03;;;8.60;99.90;;;;;;5061285;28;20029;-65
2022/09/18 03:14:46;;;;;;;3.38;1.75;;;8.60;99.90;;;;;;5060076;28;20028;-66
2022/09/18 03:17:12;;;;;;;7.82;2.30;;;8.50;99.90;;;;;;5056056;28;20055;-63
2022/09/18 03:19:38;;;;;;;5.90;2.05;;;8.40;99.90;;;;;;5056501;28;20379;-63
2022/09/18 03:22:04;;;;;;;4.93;1.88;;;8.40;99.90;;;;;;5063413;28;20048;-64
2022/09/18 03:24:30;;;;;;;6.15;2.30;;;8.40;99.90;;;;;;5060363;28;20100;-63
2022/09/18 03:26:56;;;;;;;5.03;2.40;;;8.30;99.90;;;;;;5062644;28;20444;-64
2022/09/18 03:29:21;;;;;;;3.63;2.30;;;8.20;99.90;;;;;;5076984;28;20028;-64
2022/09/18 03:31:47;;;;;;;4.57;2.30;;;8.20;99.90;;;;;;5060740;28;20384;-65
2022/09/18 03:34:13;;;;;;;10.93;2.92;;;8.10;99.90;;;;;;5046206;28;20025;-64
2022/09/18 03:36:38;;;;;;;7.05;2.58;;;8.10;99.90;;;;;;5061236;28;20032;-63
2022/09/18 03:39:04;;;;;;;6.35;2.55;;;8.00;99.90;;;;;;5058211;28;20391;-64
2022/09/18 03:41:30;;;;;;;3.72;2.03;;;8.00;99.90;;;;;;5059253;28;20044;-65
2022/09/18 03:43:56;;;;;;;4.30;2.45;;;8.00;99.90;;;;;;5059728;28;20492;-64
2022/09/18 03:46:22;;;;;;;9.65;3.00;;;8.00;99.90;;;;;;5058568;28;20025;-65
2022/09/18 03:48:49;;;;;;;5.70;2.47;;;8.00;99.90;;;;;;5061970;28;20475;-64
2022/09/18 03:51:16;;;;;;;5.95;2.58;;;7.90;99.90;;;;;;5057977;28;20036;-64
2022/09/18 03:53:44;;;;;;;3.85;3.28;;;7.90;99.90;;;;;;5063958;28;20029;-64
2022/09/18 03:56:09;;;;;;;5.28;2.55;;;7.90;99.90;;;;;;5067023;28;20028;-66
2022/09/18 03:58:35;;;;;;;7.80;3.28;;;7.90;99.90;;;;;;5076660;28;20047;-63
2022/09/18 04:01:01;;;;;;;6.65;2.47;;;7.90;99.90;;;;;;5062859;28;20545;-63
2022/09/18 04:03:27;;;;;;;6.75;2.45;;;7.90;99.90;;;;;;5054976;28;20028;-65
2022/09/18 04:05:52;;;;;;;4.30;2.78;;;7.90;99.90;;;;;;5055892;28;20388;-64
2022/09/18 04:08:18;;;;;;;4.63;2.33;;;8.00;99.90;;;;;;5063476;28;20056;-67
2022/09/18 04:10:46;;;;;;;5.80;2.30;;;7.90;99.90;;;;;;5058895;28;20564;-65
2022/09/18 04:13:11;;;;;;;13.98;3.53;;;8.00;99.90;;;;;;5059507;28;20268;-63
2022/09/18 04:15:37;;;;;;;5.88;2.70;;;8.00;99.90;;;;;;5061141;28;20078;-63
2022/09/18 04:18:03;;;;;;;6.57;2.30;;;7.90;99.90;;;;;;5057013;28;20475;-64
2022/09/18 04:20:28;;;;;;;4.07;2.55;;;7.90;99.90;;;;;;5060665;28;20027;-63
2022/09/18 04:22:54;;;;;;;4.38;3.05;;;7.90;99.90;;;;;;5058190;28;20492;-65
2022/09/18 04:25:20;;;;;;;6.65;3.08;;;7.80;99.90;;;;;;5055410;28;20048;-64
2022/09/18 04:27:45;;;;;;;9.13;3.00;;;7.80;99.90;;;;;;5057742;28;20028;-64
2022/09/18 04:30:11;;;;;;;4.55;2.83;;;7.70;99.90;;;;;;5059404;28;20386;-63
2022/09/18 04:32:37;;;;;;;6.30;2.60;;;7.70;99.90;;;;;;5063728;28;20059;-64
2022/09/18 04:35:04;;;;;;;7.55;3.75;;;7.70;99.90;;;;;;5058086;28;20047;-65
2022/09/18 04:37:30;;;;;;;7.03;3.25;;;7.70;99.90;;;;;;5060112;28;20035;-64
2022/09/18 04:39:56;;;;;;;7.82;3.25;;;7.60;99.90;;;;;;5059227;28;20021;-63
2022/09/18 04:42:21;;;;;;;5.97;2.80;;;7.60;99.90;;;;;;5057672;28;20031;-64
2022/09/18 04:44:47;;;;;;;3.95;2.42;;;7.80;99.90;;;;;;5059637;28;20036;-64
2022/09/18 04:47:13;;;;;;;5.82;2.92;;;7.80;99.90;;;;;;5059584;28;20033;-66
2022/09/18 04:49:38;;;;;;;3.92;2.70;;;7.90;99.90;;;;;;5047134;28;20029;-65
2022/09/18 04:52:04;;;;;;;7.80;2.58;;;8.00;99.90;;;;;;5061014;28;20044;-64
2022/09/18 04:54:29;;;;;;;4.50;2.85;;;8.00;99.90;;;;;;5057480;28;20108;-64
2022/09/18 04:56:55;;;;;;;6.88;2.65;;;8.00;99.90;;;;;;5056906;28;20039;-64
2022/09/18 04:59:21;;;;;;;3.80;2.60;;;8.00;99.90;;;;;;5062618;28;20036;-67
2022/09/18 05:01:47;;;;;;;4.75;2.20;;;8.00;99.90;;;;;;5056082;28;20044;-67
2022/09/18 05:04:13;;;;;;;6.82;2.53;;;8.10;99.90;;;;;;5057485;28;20029;-64
2022/09/18 05:06:39;;;;;;;4.40;2.38;;;8.20;99.90;;;;;;5059395;28;20163;-64
2022/09/18 05:09:04;;;;;;;5.45;2.78;;;8.30;99.90;;;;;;5063212;28;20035;-63
2022/09/18 05:11:30;;;;;;;7.63;2.47;;;8.40;99.90;;;;;;5063598;28;20033;-64
2022/09/18 05:13:56;;;;;;;6.55;2.25;;;8.50;99.90;;;;;;5064634;28;20029;-64
2022/09/18 05:16:23;;;;;;;3.55;1.90;;;8.50;99.90;;;;;;5057827;28;20487;-64
2022/09/18 05:18:51;;;;;;;6.30;2.30;;;8.50;99.90;;;;;;5063070;28;20025;-66
2022/09/18 05:21:17;;;;;;;6.88;2.20;;;8.60;99.90;;;;;;5061447;28;20347;-66
2022/09/18 05:23:44;;;;;;;4.63;1.70;;;8.70;99.90;;;;;;5063337;28;20096;-64
2022/09/18 05:26:10;;;;;;;6.95;2.10;;;8.70;99.90;;;;;;5059325;28;20035;-67
2022/09/18 05:28:39;;;;;;;7.05;2.03;;;8.80;99.90;;;;;;5059824;28;20128;-64
2022/09/18 05:31:05;;;;;;;5.00;2.35;;;8.80;99.90;;;;;;5073984;28;20066;-64
2022/09/18 05:33:31;;;;;;;6.20;3.00;;;8.90;99.90;;;;;;5061485;28;20017;-63
2022/09/18 05:35:57;;;;;;;6.97;3.55;;;8.90;99.90;;;;;;5064256;28;20112;-63
2022/09/18 05:38:24;;;;;;;6.00;2.15;;;9.00;99.90;;;;;;5064013;28;20089;-64
2022/09/18 05:40:50;;;;;;;4.47;2.17;;;9.00;99.90;;;;;;5062426;28;20025;-65
2022/09/18 05:43:16;;;;;;;6.93;3.42;;;9.00;99.90;;;;;;5056879;28;20384;-64
2022/09/18 05:45:42;;;;;;;4.32;2.17;;;9.10;99.90;;;;;;5067027;28;20036;-65
2022/09/18 05:48:11;;;;;;;5.88;2.28;;;9.20;99.90;;;;;;5063307;28;20048;-65
2022/09/18 05:50:37;;;;;;;4.68;2.60;;;9.20;99.90;;;;;;5061082;28;20123;-64
2022/09/18 05:53:11;;;;;;;3.33;1.80;;;9.30;99.90;;;;;;5059685;28;20491;-63
2022/09/18 05:55:37;;;;;;;2.78;1.50;;;9.40;99.90;;;;;;5064045;28;20036;-63
2022/09/18 05:58:04;;;;;;;2.67;2.17;;;9.50;99.90;;;;;;5058404;28;20162;-64
2022/09/18 06:00:33;;;;;;;3.80;2.40;;;9.90;99.90;;;;;;5062651;28;20400;-66
2022/09/18 06:03:00;;;;;;;5.50;2.22;;;10.30;99.90;;;;;;5061203;28;20373;-66
2022/09/18 06:05:28;;;;;;;4.18;2.10;;;10.50;99.90;;;;;;5056547;28;20037;-65
2022/09/18 06:07:53;;;;;;;9.95;3.80;;;10.70;99.90;;;;;;5065190;28;20021;-64
2022/09/18 06:10:21;;;;;;;6.82;4.32;;;10.80;99.90;;;;;;5062481;28;20036;-65
2022/09/18 06:12:46;;;;;;;2.85;1.67;;;10.80;99.90;;;;;;5061442;28;20013;-64
2022/09/18 06:15:12;;;;;;;4.50;1.40;;;10.80;99.90;;;;;;5063071;28;20027;-63
2022/09/18 06:17:39;;;;;;;2.83;1.20;;;10.80;99.90;;;;;;5063048;28;20041;-63
2022/09/18 06:20:07;;;;;;;3.30;2.15;;;10.70;99.90;;;;;;5057707;28;20395;-63
2022/09/18 06:22:33;;;;;;;4.32;1.50;;;10.70;99.90;;;;;;5060444;28;20056;-66
2022/09/18 06:24:59;;;;;;;3.53;1.25;;;10.70;99.90;;;;;;5057222;28;20481;-68
2022/09/18 06:27:25;;;;;;;5.80;1.98;;;10.70;99.90;;;;;;5066248;28;20102;-66
2022/09/18 06:29:51;;;;;;;2.78;1.75;;;10.60;99.90;;;;;;5055291;28;20035;-65
2022/09/18 06:32:19;;;;;;;3.28;1.17;;;10.60;99.90;;;;;;5059047;28;20064;-65
2022/09/18 06:34:45;;;;;;;5.10;1.50;;;10.60;99.90;;;;;;5060609;28;20047;-64
2022/09/18 06:37:11;;;;;;;4.00;1.52;;;10.60;99.90;;;;;;5062527;28;20483;-64
2022/09/18 06:39:37;;;;;;;5.55;1.20;;;10.80;99.90;;;;;;5082794;28;20059;-66
2022/09/18 06:42:04;;;;;;;1.58;1.00;;;11.70;99.90;;;;;;5058882;28;20453;-64
2022/09/18 06:44:30;;;;;;;2.33;0.90;;;12.40;99.90;;;;;;5063265;28;20033;-64
2022/09/18 06:46:55;;;;;;;2.47;1.10;;;12.80;99.90;;;;;;5058238;28;20043;-65
2022/09/18 06:49:21;;;;;;;3.70;1.27;;;13.00;99.90;;;;;;5062416;28;20029;-66
2022/09/18 06:51:47;;;;;;;5.45;1.10;;;13.10;99.90;;;;;;5064932;28;20074;-64
2022/09/18 06:54:14;;;;;;;3.63;1.00;;;13.10;99.90;;;;;;5060762;28;20115;-64
2022/09/18 06:56:41;;;;;;;2.17;1.20;;;13.00;99.90;;;;;;5061275;28;20033;-64
2022/09/18 06:59:07;;;;;;;3.38;1.10;;;12.70;99.90;;;;;;5058718;28;20044;-65
2022/09/18 07:01:32;;;;;;;2.85;1.00;;;12.60;99.90;;;;;;5059941;28;20028;-64
2022/09/18 07:03:58;;;;;;;9.38;0.82;;;13.10;99.90;;;;;;5057880;28;20020;-64
2022/09/18 07:06:25;;;;;;;2.15;0.90;;;13.90;99.90;;;;;;5061142;28;20500;-67
2022/09/18 07:08:51;;;;;;;1.83;0.90;;;14.10;99.90;;;;;;5061949;28;20387;-65
2022/09/18 07:11:16;;;;;;;2.03;1.45;;;14.10;99.90;;;;;;5059028;28;20083;-64
2022/09/18 07:13:42;;;;;;;3.58;1.60;;;14.00;99.90;;;;;;5060144;28;20484;-65
2022/09/18 07:16:07;;;;;;;3.15;1.63;;;13.80;99.90;;;;;;5059719;28;20063;-64
2022/09/18 07:18:33;;;;;;;2.22;1.30;;;14.10;99.90;;;;;;5059100;28;20036;-64
2022/09/18 07:20:59;;;;;;;1.67;0.50;;;15.30;99.90;;;;;;5059341;28;20485;-64
2022/09/18 07:23:30;;;;;;;2.35;0.90;;;16.40;95.90;;;;;;5061521;28;20104;-64
2022/09/18 07:25:59;;;;;;;2.60;1.38;;;16.70;92.80;;;;;;5058233;28;20040;-69
2022/09/18 07:28:25;;;;;;;2.15;0.60;;;16.60;91.80;;;;;;5063728;28;20028;-64
2022/09/18 07:30:51;;;;;;;1.38;0.65;;;16.30;93.00;;;;;;5079843;28;20020;-66
2022/09/18 07:33:16;;;;;;;1.67;0.75;;;15.80;94.00;;;;;;5059757;28;20048;-67
2022/09/18 07:35:42;;;;;;;2.25;0.90;;;15.50;94.90;;;;;;5054326;28;20052;-64
2022/09/18 07:38:09;;;;;;;2.10;0.80;;;15.20;96.30;;;;;;5059354;28;20072;-64
2022/09/18 07:40:35;;;;;;;1.20;0.77;;;14.80;97.40;;;;;;5061221;28;20036;-67
2022/09/18 07:43:02;;;;;;;1.98;0.70;;;14.50;98.60;;;;;;5049519;28;20077;-64
2022/09/18 07:45:28;;;;;;;1.42;0.68;;;14.30;99.90;;;;;;5061369;28;20017;-64
2022/09/18 07:47:54;;;;;;;1.52;0.80;;;14.00;99.90;;;;;;5060100;28;20568;-66
2022/09/18 07:50:21;;;;;;;2.33;0.80;;;13.70;99.90;;;;;;5060434;28;20021;-64
2022/09/18 07:52:52;;;;;;;1.80;0.70;;;13.40;99.90;;;;;;5051649;28;20024;-66
2022/09/18 07:55:20;;;;;;;1.83;1.00;;;13.20;99.90;;;;;;5063918;28;20043;-66
2022/09/18 07:57:54;;;;;;;1.83;0.85;;;13.00;99.90;;;;;;5049733;28;20036;-64
2022/09/18 08:00:20;;;;;;;2.10;0.80;;;12.90;99.90;;;;;;5058149;28;20478;-63
2022/09/18 08:02:46;;;;;;;2.03;0.85;;;12.70;99.90;;;;;;5076159;28;20174;-66
2022/09/18 08:05:12;;;;;;;1.30;0.80;;;12.50;99.90;;;;;;5080397;28;20036;-64
2022/09/18 08:07:37;;;;;;;3.83;1.00;;;12.40;99.90;;;;;;5084202;28;20025;-64
2022/09/18 08:10:05;;;;;;;3.30;0.90;;;12.40;99.90;;;;;;5080160;28;20504;-66
2022/09/18 08:12:31;;;;;;;2.08;0.90;;;12.40;99.90;;;;;;5077727;28;20388;-63
2022/09/18 08:14:58;;;;;;;2.97;1.10;;;12.40;99.90;;;;;;5080116;28;20024;-64
2022/09/18 08:17:24;;;;;;;1.58;1.00;;;12.30;99.90;;;;;;5080618;28;20032;-66
2022/09/18 08:19:50;;;;;;;2.70;0.90;;;12.30;99.90;;;;;;5081205;28;20034;-64
2022/09/18 08:22:16;;;;;;;2.08;0.93;;;12.30;99.90;;;;;;5079441;28;20024;-66
2022/09/18 08:24:41;;;;;;;3.17;1.42;;;12.20;99.90;;;;;;5073869;28;20040;-66
2022/09/18 08:27:07;;;;;;;4.03;1.35;;;12.10;99.90;;;;;;5081162;28;20105;-63
2022/09/18 08:29:33;;;;;;;1.60;1.00;;;12.00;99.90;;;;;;5080094;28;20452;-63
2022/09/18 08:31:59;;;;;;;4.57;1.20;;;11.90;99.90;;;;;;5077028;28;20037;-64
2022/09/18 08:34:25;;;;;;;1.75;0.82;;;11.90;99.90;;;;;;5077411;28;20028;-64
2022/09/18 08:36:51;;;;;;;2.08;0.90;;;12.00;99.90;;;;;;5078005;28;20147;-64
2022/09/18 08:39:17;;;;;;;1.90;0.85;;;12.00;99.90;;;;;;5080267;28;20119;-65
2022/09/18 08:42:17;;;;;;;2.38;1.02;;;11.90;99.90;;;;;;5079411;28;20021;-64
2022/09/18 08:44:58;;;;;;;1.52;1.05;;;11.80;99.90;;;;;;5087325;28;20368;-64
2022/09/18 08:47:30;;;;;;;2.17;0.93;;;11.80;99.90;;;;;;5083105;28;20028;-63
2022/09/18 08:50:03;;;;;;;1.23;1.13;;;11.70;99.90;;;;;;5086612;28;20024;-64
2022/09/18 08:52:33;;;;;;;1.95;1.40;;;11.70;99.90;;;;;;5084566;28;20427;-63
2022/09/18 08:55:26;;;;;;;3.20;1.20;;;11.70;99.90;;;;;;5081392;28;20027;-63
2022/09/18 08:58:00;;;;;;;2.40;1.40;;;11.80;99.90;;;;;;5086202;28;20047;-63
2022/09/18 09:00:33;;;;;;;2.88;0.98;;;11.90;99.90;;;;;;5088554;28;20490;-64
2022/09/18 09:03:20;;;;;;;1.58;0.82;;;12.00;99.90;;;;;;5082778;28;20075;-64
2022/09/18 09:05:56;;;;;;;1.40;0.82;;;12.10;99.90;;;;;;5087645;28;20024;-64
2022/09/18 09:08:27;;;;;;;1.67;0.93;;;12.10;99.90;;;;;;5082946;28;20024;-64
2022/09/18 09:11:15;;;;;;;1.40;0.82;;;12.20;99.90;;;;;;5086159;28;20517;-64
2022/09/18 09:14:13;;;;;;;2.38;2.10;;;12.20;99.90;;;;;;5085485;28;20497;-64
2022/09/18 09:17:10;;;;;;;2.70;1.50;;;12.30;99.90;;;;;;5065445;28;20414;-65
2022/09/18 09:20:06;;;;;;;2.60;1.30;;;12.40;99.90;;;;;;5087341;28;20509;-64
2022/09/18 09:22:55;;;;;;;3.83;0.95;;;12.40;99.90;;;;;;5085558;28;20495;-64
2022/09/18 09:25:27;;;;;;;1.25;0.65;;;12.50;99.90;;;;;;5085671;28;20047;-64
2022/09/18 09:28:01;;;;;;;0.82;0.60;;;12.60;99.90;;;;;;5088225;28;20207;-64
2022/09/18 09:30:32;;;;;;;1.48;0.52;;;12.70;99.90;;;;;;5064102;28;20056;-66
2022/09/18 09:33:23;;;;;;;0.43;0.43;;;12.70;99.90;;;;;;5065589;28;20035;-66
2022/09/18 09:35:54;;;;;;;0.60;0.60;;;12.60;99.90;;;;;;5066500;28;20024;-64
2022/09/18 09:38:47;;;;;;;0.50;0.50;;;12.60;99.90;;;;;;5065378;28;20039;-65
2022/09/18 09:41:36;;;;;;;0.50;0.50;;;12.70;99.90;;;;;;5067000;28;20103;-64
2022/09/18 09:44:17;;;;;;;0.30;0.30;;;12.80;99.90;;;;;;5064783;28;20115;-64
2022/09/18 09:46:53;;;;;;;0.40;0.40;;;12.80;99.90;;;;;;5067202;28;20078;-64
2022/09/18 09:49:33;;;;;;;0.93;0.40;;;12.80;99.90;;;;;;5064706;28;21743;-65
2022/09/18 09:52:27;;;;;;;0.73;0.47;;;12.80;99.90;;;;;;5063833;28;20059;-64
2022/09/18 09:55:15;;;;;;;1.35;0.80;;;13.00;99.90;;;;;;5057838;28;20028;-68
2022/09/18 09:57:56;;;;;;;0.40;0.40;;;13.00;99.90;;;;;;5084176;28;20134;-63
2022/09/18 10:00:22;;;;;;;1.23;0.70;;;13.00;99.90;;;;;;5058864;28;20366;-64
2022/09/18 10:03:22;;;;;;;2.00;0.55;;;13.00;99.90;;;;;;5047048;28;20029;-64
2022/09/18 10:05:50;;;;;;;0.52;0.40;;;13.00;99.90;;;;;;5057934;28;20068;-64
2022/09/18 10:08:44;;;;;;;0.47;0.40;;;13.00;99.90;;;;;;5061073;28;20021;-66
2022/09/18 10:11:12;;;;;;;2.85;0.32;;;12.90;99.90;;;;;;5065697;28;20566;-65
2022/09/18 10:14:16;;;;;;;0.63;0.40;;;12.80;99.90;;;;;;5060048;28;20032;-64
2022/09/18 10:16:45;;;;;;;0.90;0.40;;;12.60;99.90;;;;;;5058433;28;20029;-63
2022/09/18 10:19:16;;;;;;;1.30;0.50;;;12.50;99.90;;;;;;5063298;28;20070;-64
2022/09/18 10:21:42;;;;;;;0.50;0.50;;;12.30;99.90;;;;;;5061124;28;20794;-64
2022/09/18 10:24:20;;;;;;;0.93;0.45;;;12.00;99.90;;;;;;5061001;28;20055;-64
2022/09/18 10:27:08;;;;;;;1.40;0.57;;;11.80;99.90;;;;;;5059991;28;20029;-64
2022/09/18 10:29:34;;;;;;;0.85;0.43;;;11.50;99.90;;;;;;5057047;28;20090;-64
2022/09/18 10:32:00;;;;;;;0.50;0.50;;;11.40;99.90;;;;;;5058633;28;20029;-63
2022/09/18 10:34:46;;;;;;;0.50;0.50;;;11.40;99.90;;;;;;5063366;28;20035;-64
2022/09/18 10:37:29;;;;;;;0.60;0.60;;;11.40;99.90;;;;;;5059548;28;20043;-63
2022/09/18 10:40:00;;;;;;;1.02;0.50;;;11.60;99.90;;;;;;5045839;28;20017;-64
2022/09/18 10:42:28;;;;;;;0.50;0.50;;;11.70;99.90;;;;;;5056691;28;20077;-64
2022/09/18 10:44:57;;;;;;;0.52;0.50;;;11.80;99.90;;;;;;5060155;28;20039;-63
2022/09/18 10:47:32;;;;;;;0.50;0.50;;;12.10;99.90;;;;;;5063381;28;20032;-66
2022/09/18 10:50:18;;;;;;;0.77;0.63;;;12.30;99.90;;;;;;5059930;28;20029;-64
2022/09/18 10:52:45;;;;;;;1.55;0.60;;;12.60;99.90;;;;;;5063231;28;20050;-64
2022/09/18 10:55:21;;;;;;;1.48;0.50;;;12.70;99.90;;;;;;5046600;28;20078;-66
2022/09/18 10:57:47;;;;;;;1.15;0.68;;;12.80;99.90;;;;;;5060167;28;20437;-68
2022/09/18 11:00:15;;;;;;;0.60;0.50;;;12.80;99.90;;;;;;5059854;28;20025;-65
2022/09/18 11:02:48;;;;;;;0.50;0.50;;;12.80;99.90;;;;;;5062545;28;20029;-66
2022/09/18 11:05:19;;;;;;;1.08;0.70;;;12.80;99.90;;;;;;5057904;28;20412;-64
2022/09/18 11:07:56;;;;;;;1.42;0.68;;;12.90;99.90;;;;;;5060608;28;20040;-65
2022/09/18 11:10:25;;;;;;;0.60;0.60;;;13.10;99.90;;;;;;5060395;28;20025;-64
2022/09/18 11:12:59;;;;;;;0.57;0.52;;;13.30;99.90;;;;;;5064376;28;20437;-64
2022/09/18 11:15:33;;;;;;;0.73;0.50;;;13.50;99.90;;;;;;5062431;28;20037;-65
2022/09/18 11:18:03;;;;;;;2.47;0.60;;;13.50;99.90;;;;;;5056781;28;20276;-64
2022/09/18 11:20:47;;;;;;;1.00;0.68;;;13.60;99.90;;;;;;5061162;28;20280;-64
2022/09/18 11:23:31;;;;;;;2.13;0.45;;;13.80;99.90;;;;;;5058078;28;20032;-63
2022/09/18 11:26:25;;;;;;;1.85;0.60;;;13.80;99.90;;;;;;5061568;28;20028;-64
2022/09/18 11:29:02;;;;;;;1.85;0.45;;;14.10;99.90;;;;;;5060233;28;20021;-64
2022/09/18 11:31:50;;;;;;;0.60;0.60;;;14.40;99.90;;;;;;5061473;28;20013;-66
2022/09/18 11:34:19;;;;;;;2.58;0.85;;;14.50;99.90;;;;;;5060455;28;20036;-65
2022/09/18 11:36:48;;;;;;;0.82;0.50;;;14.50;99.90;;;;;;5060564;28;20021;-64
2022/09/18 11:39:22;;;;;;;1.25;0.60;;;14.50;99.90;;;;;;5058448;28;20071;-65
2022/09/18 11:41:49;;;;;;;1.65;0.68;;;14.40;99.90;;;;;;5059850;28;20044;-67
2022/09/18 11:44:21;;;;;;;1.58;0.63;;;14.50;99.90;;;;;;5060722;28;20120;-64
2022/09/18 11:46:58;;;;;;;1.65;0.70;;;14.50;99.90;;;;;;5058516;28;20052;-64
2022/09/18 11:49:34;;;;;;;1.02;0.57;;;14.50;99.90;;;;;;5059774;28;20033;-64
2022/09/18 11:52:15;;;;;;;0.77;0.50;;;14.50;99.90;;;;;;5047712;28;20086;-65
2022/09/18 11:54:41;;;;;;;0.52;0.50;;;14.50;99.90;;;;;;5060913;28;20434;-64
2022/09/18 11:57:18;;;;;;;2.45;0.63;;;14.50;99.90;;;;;;5057865;28;20036;-64
2022/09/18 11:59:56;;;;;;;1.95;0.57;;;14.40;99.90;;;;;;5055727;28;20032;-64
2022/09/18 12:02:28;;;;;;;0.50;0.50;;;14.40;99.90;;;;;;5056263;28;20095;-64
2022/09/18 12:05:10;;;;;;;1.65;0.50;;;14.30;99.90;;;;;;5055914;28;20060;-66
2022/09/18 12:07:50;;;;;;;0.88;0.50;;;14.20;99.90;;;;;;5061369;28;20070;-63
2022/09/18 12:10:30;;;;;;;0.93;0.50;;;14.20;99.90;;;;;;5054846;28;20044;-64
2022/09/18 12:13:17;;;;;;;1.13;0.52;;;14.20;99.90;;;;;;5055170;28;20017;-63
2022/09/18 12:15:53;;;;;;;0.77;0.43;;;14.10;99.90;;;;;;5057646;28;20040;-64
2022/09/18 12:18:26;;;;;;;0.60;0.50;;;14.00;99.90;;;;;;5055147;28;20039;-63
2022/09/18 12:21:02;;;;;;;0.90;0.50;;;13.90;99.90;;;;;;5059779;28;20134;-63
2022/09/18 12:23:29;;;;;;;1.05;0.43;;;13.90;99.90;;;;;;5056886;28;20079;-64
2022/09/18 12:25:54;;;;;;;1.25;0.60;;;13.80;99.90;;;;;;5056431;28;20401;-64
2022/09/18 12:28:32;;;;;;;0.57;0.40;;;13.80;99.90;;;;;;5062411;28;20033;-64
2022/09/18 12:31:11;;;;;;;0.30;0.30;;;13.80;99.90;;;;;;5059527;28;20028;-63
2022/09/18 12:33:50;;;;;;;0.57;0.50;;;13.70;99.90;;;;;;5069404;28;20531;-64
2022/09/18 12:36:36;;;;;;;0.98;0.50;;;13.60;99.90;;;;;;5061543;28;20055;-65
2022/09/18 12:39:19;;;;;;;0.45;0.45;;;13.50;99.90;;;;;;5053449;28;20510;-64
2022/09/18 12:42:02;;;;;;;0.55;0.40;;;13.50;99.90;;;;;;5056904;28;20085;-65
2022/09/18 12:44:46;;;;;;;0.40;0.40;;;13.40;99.90;;;;;;5057086;28;20074;-64
2022/09/18 12:47:12;;;;;;;1.23;0.88;;;13.40;99.90;;;;;;5056393;28;20029;-64
2022/09/18 12:49:56;;;;;;;0.77;0.60;;;13.40;99.90;;;;;;5064478;28;20369;-63
2022/09/18 12:52:50;;;;;;;0.73;0.40;;;13.40;99.90;;;;;;5058719;28;20424;-64
2022/09/18 12:55:30;;;;;;;0.90;0.40;;;13.30;99.90;;;;;;5058097;28;20029;-66
2022/09/18 12:58:31;;;;;;;0.57;0.43;;;13.20;99.90;;;;;;5060001;28;20032;-63
2022/09/18 13:01:01;;;;;;;0.40;0.40;;;13.10;99.90;;;;;;5025015;28;20038;-63
2022/09/18 13:03:32;;;;;;;0.30;0.30;;;13.10;99.90;;;;;;5055544;28;20033;-63
2022/09/18 13:06:14;;;;;;;1.23;0.30;;;13.00;99.90;;;;;;5059167;28;20064;-69
2022/09/18 13:08:54;;;;;;;0.50;0.50;;;12.90;99.90;;;;;;5057400;28;20028;-65
2022/09/18 13:11:41;;;;;;;0.68;0.40;;;12.90;99.90;;;;;;5059608;28;20659;-63
2022/09/18 13:14:23;;;;;;;1.58;0.60;;;12.80;99.90;;;;;;5056917;28;20033;-64
2022/09/18 13:17:01;;;;;;;0.65;0.65;;;12.70;99.90;;;;;;5062260;28;20020;-64
2022/09/18 13:20:06;;;;;;;3.47;3.17;;;12.70;99.90;;;;;;5054952;28;20029;-65